sensor_id;sensor_type;location;lat;lon;timestamp;pressure;altitude;pressure_sealevel;temperature;humidity
70133;BME280;57495;49.922;7.966;2023-11-19T00:01:56;99643.44;;;8.42;100.00
70133;BME280;57495;49.922;7.966;2023-11-19T00:03:57;99644.25;;;8.43;100.00
70133;BME280;57495;49.922;7.966;2023-11-19T00:05:59;99657.44;;;8.44;100.00
70133;BME280;57495;49.922;7.966;2023-11-19T00:08:00;99661.78;;;8.45;100.00
70133;BME280;57495;49.922;7.966;2023-11-19T00:10:03;99663.47;;;8.46;100.00
70133;BME280;57495;49.922;7.966;2023-11-19T00:12:08;99672.75;;;8.42;100.00
70133;BME280;57495;49.922;7.966;2023-11-19T00:14:09;99665.31;;;8.46;100.00
70133;BME280;57495;49.922;7.966;2023-11-19T00:16:11;99659.25;;;8.44;100.00
70133;BME280;57495;49.922;7.966;2023-11-19T00:18:12;99653.53;;;8.48;100.00
70133;BME280;57495;49.922;7.966;2023-11-19T00:20:16;99650.88;;;8.48;100.00
70133;BME280;57495;49.922;7.966;2023-11-19T00:22:17;99658.16;;;8.46;100.00
70133;BME280;57495;49.922;7.966;2023-11-19T00:24:20;99668.38;;;8.51;100.00
70133;BME280;57495;49.922;7.966;2023-11-19T00:26:22;99653.09;;;8.53;100.00
70133;BME280;57495;49.922;7.966;2023-11-19T00:28:25;99647.22;;;8.59;100.00
70133;BME280;57495;49.922;7.966;2023-11-19T00:30:26;99648.75;;;8.52;100.00
70133;BME280;57495;49.922;7.966;2023-11-19T00:32:26;99641.19;;;8.57;100.00
70133;BME280;57495;49.922;7.966;2023-11-19T00:34:28;99636.56;;;8.59;100.00
70133;BME280;57495;49.922;7.966;2023-11-19T00:36:29;99630.81;;;8.64;100.00
70133;BME280;57495;49.922;7.966;2023-11-19T00:38:31;99639.38;;;8.58;100.00
70133;BME280;57495;49.922;7.966;2023-11-19T00:40:32;99641.03;;;8.59;100.00
70133;BME280;57495;49.922;7.966;2023-11-19T00:42:34;99638.53;;;8.57;100.00
70133;BME280;57495;49.922;7.966;2023-11-19T00:44:36;99630.81;;;8.54;100.00
70133;BME280;57495;49.922;7.966;2023-11-19T00:46:37;99634.03;;;8.58;100.00
70133;BME280;57495;49.922;7.966;2023-11-19T00:48:38;99628.72;;;8.58;100.00
70133;BME280;57495;49.922;7.966;2023-11-19T00:50:39;99603.44;;;8.62;100.00
70133;BME280;57495;49.922;7.966;2023-11-19T00:52:44;99609.34;;;8.56;100.00
70133;BME280;57495;49.922;7.966;2023-11-19T00:54:45;99598.97;;;8.62;100.00
70133;BME280;57495;49.922;7.966;2023-11-19T00:56:46;99608.66;;;8.63;100.00
70133;BME280;57495;49.922;7.966;2023-11-19T00:58:47;99625.91;;;8.59;100.00
70133;BME280;57495;49.922;7.966;2023-11-19T01:00:49;99617.50;;;8.74;100.00
70133;BME280;57495;49.922;7.966;2023-11-19T01:02:50;99599.25;;;8.69;100.00
70133;BME280;57495;49.922;7.966;2023-11-19T01:04:52;99609.50;;;8.74;100.00
70133;BME280;57495;49.922;7.966;2023-11-19T01:06:52;99605.28;;;8.71;100.00
70133;BME280;57495;49.922;7.966;2023-11-19T01:08:54;99609.34;;;8.65;100.00
70133;BME280;57495;49.922;7.966;2023-11-19T01:10:57;99608.06;;;8.69;100.00
70133;BME280;57495;49.922;7.966;2023-11-19T01:13:00;99578.47;;;8.73;100.00
70133;BME280;57495;49.922;7.966;2023-11-19T01:15:01;99604.88;;;8.76;100.00
70133;BME280;57495;49.922;7.966;2023-11-19T01:17:04;99599.25;;;8.69;100.00
70133;BME280;57495;49.922;7.966;2023-11-19T01:19:06;99592.66;;;8.63;100.00
70133;BME280;57495;49.922;7.966;2023-11-19T01:21:07;99593.09;;;8.68;100.00
70133;BME280;57495;49.922;7.966;2023-11-19T01:23:08;99594.50;;;8.63;100.00
70133;BME280;57495;49.922;7.966;2023-11-19T01:25:10;99600.38;;;8.66;100.00
70133;BME280;57495;49.922;7.966;2023-11-19T01:27:11;99593.63;;;8.62;100.00
70133;BME280;57495;49.922;7.966;2023-11-19T01:29:13;99618.34;;;8.64;100.00
70133;BME280;57495;49.922;7.966;2023-11-19T01:31:15;99625.91;;;8.69;100.00
70133;BME280;57495;49.922;7.966;2023-11-19T01:33:18;99626.72;;;8.69;100.00
70133;BME280;57495;49.922;7.966;2023-11-19T01:35:19;99627.72;;;8.68;100.00
70133;BME280;57495;49.922;7.966;2023-11-19T01:37:20;99617.75;;;8.70;100.00
70133;BME280;57495;49.922;7.966;2023-11-19T01:39:21;99614.97;;;8.72;100.00
70133;BME280;57495;49.922;7.966;2023-11-19T01:41:23;99598.97;;;8.72;100.00
70133;BME280;57495;49.922;7.966;2023-11-19T01:43:34;99579.31;;;8.73;100.00
70133;BME280;57495;49.922;7.966;2023-11-19T01:45:36;99584.66;;;8.63;100.00
70133;BME280;57495;49.922;7.966;2023-11-19T01:47:37;99578.75;;;8.69;100.00
70133;BME280;57495;49.922;7.966;2023-11-19T01:49:40;99577.63;;;8.62;100.00
70133;BME280;57495;49.922;7.966;2023-11-19T01:51:41;99566.97;;;8.62;100.00
70133;BME280;57495;49.922;7.966;2023-11-19T01:53:44;99566.00;;;8.63;100.00
70133;BME280;57495;49.922;7.966;2023-11-19T01:55:46;99567.69;;;8.64;100.00
70133;BME280;57495;49.922;7.966;2023-11-19T01:57:49;99558.44;;;8.68;100.00
70133;BME280;57495;49.922;7.966;2023-11-19T01:59:52;99545.09;;;8.68;100.00
70133;BME280;57495;49.922;7.966;2023-11-19T02:01:54;99553.38;;;8.65;100.00
70133;BME280;57495;49.922;7.966;2023-11-19T02:03:57;99556.59;;;8.69;100.00
70133;BME280;57495;49.922;7.966;2023-11-19T02:06:00;99556.59;;;8.69;100.00
70133;BME280;57495;49.922;7.966;2023-11-19T02:08:03;99545.94;;;8.69;100.00
70133;BME280;57495;49.922;7.966;2023-11-19T02:10:05;99551.81;;;8.73;100.00
70133;BME280;57495;49.922;7.966;2023-11-19T02:12:12;99557.44;;;8.69;100.00
70133;BME280;57495;49.922;7.966;2023-11-19T02:14:14;99558.84;;;8.74;100.00
70133;BME280;57495;49.922;7.966;2023-11-19T02:16:15;99551.81;;;8.73;100.00
70133;BME280;57495;49.922;7.966;2023-11-19T02:18:21;99560.50;;;8.75;100.00
70133;BME280;57495;49.922;7.966;2023-11-19T02:20:22;99555.31;;;8.73;100.00
70133;BME280;57495;49.922;7.966;2023-11-19T02:22:27;99554.91;;;8.78;100.00
70133;BME280;57495;49.922;7.966;2023-11-19T02:24:31;99542.56;;;8.77;100.00
70133;BME280;57495;49.922;7.966;2023-11-19T02:26:39;99537.91;;;8.79;100.00
70133;BME280;57495;49.922;7.966;2023-11-19T02:28:43;99533.28;;;8.81;100.00
70133;BME280;57495;49.922;7.966;2023-11-19T02:30:43;99540.31;;;8.82;100.00
70133;BME280;57495;49.922;7.966;2023-11-19T02:32:45;99539.03;;;8.86;100.00
70133;BME280;57495;49.922;7.966;2023-11-19T02:34:46;99531.03;;;8.86;100.00
70133;BME280;57495;49.922;7.966;2023-11-19T02:36:47;99529.06;;;8.88;100.00
70133;BME280;57495;49.922;7.966;2023-11-19T02:38:50;99520.09;;;8.89;100.00
70133;BME280;57495;49.922;7.966;2023-11-19T02:40:51;99512.91;;;8.89;100.00
70133;BME280;57495;49.922;7.966;2023-11-19T02:42:53;99512.63;;;8.93;100.00
70133;BME280;57495;49.922;7.966;2023-11-19T02:44:55;99519.25;;;8.88;100.00
70133;BME280;57495;49.922;7.966;2023-11-19T02:46:57;99517.28;;;8.90;100.00
70133;BME280;57495;49.922;7.966;2023-11-19T02:48:59;99511.94;;;8.90;100.00
70133;BME280;57495;49.922;7.966;2023-11-19T02:51:01;99509.56;;;8.87;100.00
70133;BME280;57495;49.922;7.966;2023-11-19T02:53:03;99521.06;;;8.88;100.00
70133;BME280;57495;49.922;7.966;2023-11-19T02:55:04;99509.97;;;8.93;100.00
70133;BME280;57495;49.922;7.966;2023-11-19T02:57:09;99508.00;;;8.95;100.00
70133;BME280;57495;49.922;7.966;2023-11-19T02:59:12;99513.31;;;8.95;100.00
70133;BME280;57495;49.922;7.966;2023-11-19T03:01:28;99524.13;;;8.93;100.00
70133;BME280;57495;49.922;7.966;2023-11-19T03:03:30;99508.28;;;8.92;100.00
70133;BME280;57495;49.922;7.966;2023-11-19T03:05:38;99502.09;;;8.91;100.00
70133;BME280;57495;49.922;7.966;2023-11-19T03:07:41;99506.47;;;8.92;100.00
70133;BME280;57495;49.922;7.966;2023-11-19T03:09:43;99505.59;;;8.92;100.00
70133;BME280;57495;49.922;7.966;2023-11-19T03:11:45;99496.78;;;8.91;100.00
70133;BME280;57495;49.922;7.966;2023-11-19T03:13:46;99503.25;;;8.88;100.00
70133;BME280;57495;49.922;7.966;2023-11-19T03:15:48;99504.09;;;8.89;100.00
70133;BME280;57495;49.922;7.966;2023-11-19T03:17:50;99493.38;;;8.99;100.00
70133;BME280;57495;49.922;7.966;2023-11-19T03:19:52;99495.06;;;9.00;100.00
70133;BME280;57495;49.922;7.966;2023-11-19T03:21:53;99495.91;;;9.00;100.00
70133;BME280;57495;49.922;7.966;2023-11-19T03:23:54;99492.25;;;9.01;100.00
70133;BME280;57495;49.922;7.966;2023-11-19T03:25:55;99492.25;;;9.01;100.00
70133;BME280;57495;49.922;7.966;2023-11-19T03:27:58;99488.19;;;8.97;100.00
70133;BME280;57495;49.922;7.966;2023-11-19T03:29:59;99492.81;;;8.95;100.00
70133;BME280;57495;49.922;7.966;2023-11-19T03:32:00;99492.00;;;8.95;100.00
70133;BME280;57495;49.922;7.966;2023-11-19T03:34:03;99485.25;;;9.00;100.00
70133;BME280;57495;49.922;7.966;2023-11-19T03:36:05;99492.81;;;8.95;100.00
70133;BME280;57495;49.922;7.966;2023-11-19T03:38:07;99489.19;;;8.96;100.00
70133;BME280;57495;49.922;7.966;2023-11-19T03:40:10;99493.81;;;8.94;100.00
70133;BME280;57495;49.922;7.966;2023-11-19T03:42:11;99488.50;;;8.94;100.00
70133;BME280;57495;49.922;7.966;2023-11-19T03:44:13;99486.66;;;8.95;100.00
70133;BME280;57495;49.922;7.966;2023-11-19T03:46:18;99490.84;;;8.97;100.00
70133;BME280;57495;49.922;7.966;2023-11-19T03:48:19;99495.50;;;8.95;100.00
70133;BME280;57495;49.922;7.966;2023-11-19T03:50:21;99491.84;;;8.96;100.00
70133;BME280;57495;49.922;7.966;2023-11-19T03:52:22;99493.53;;;8.97;100.00
70133;BME280;57495;49.922;7.966;2023-11-19T03:54:23;99503.75;;;9.02;100.00
70133;BME280;57495;49.922;7.966;2023-11-19T03:56:25;99496.59;;;9.02;100.00
70133;BME280;57495;49.922;7.966;2023-11-19T03:58:27;99492.53;;;8.98;100.00
70133;BME280;57495;49.922;7.966;2023-11-19T04:00:28;99491.66;;;9.07;100.00
70133;BME280;57495;49.922;7.966;2023-11-19T04:02:30;99487.91;;;9.00;100.00
70133;BME280;57495;49.922;7.966;2023-11-19T04:04:32;99486.53;;;8.96;100.00
70133;BME280;57495;49.922;7.966;2023-11-19T04:06:35;99482.56;;;9.00;100.00
70133;BME280;57495;49.922;7.966;2023-11-19T04:08:36;99477.34;;;9.08;100.00
70133;BME280;57495;49.922;7.966;2023-11-19T04:10:38;99471.44;;;9.15;100.00
70133;BME280;57495;49.922;7.966;2023-11-19T04:12:39;99478.06;;;9.11;100.00
70133;BME280;57495;49.922;7.966;2023-11-19T04:14:40;99473.41;;;9.13;100.00
70133;BME280;57495;49.922;7.966;2023-11-19T04:16:41;99479.28;;;9.16;100.00
70133;BME280;57495;49.922;7.966;2023-11-19T04:18:43;99476.75;;;9.15;100.00
70133;BME280;57495;49.922;7.966;2023-11-19T04:20:44;99481.78;;;9.18;100.00
70133;BME280;57495;49.922;7.966;2023-11-19T04:22:47;99481.78;;;9.18;100.00
70133;BME280;57495;49.922;7.966;2023-11-19T04:24:48;99483.19;;;9.22;100.00
70133;BME280;57495;49.922;7.966;2023-11-19T04:26:50;99486.56;;;9.24;100.00
70133;BME280;57495;49.922;7.966;2023-11-19T04:28:53;99478.84;;;9.21;100.00
70133;BME280;57495;49.922;7.966;2023-11-19T04:30:55;99467.88;;;9.24;100.00
70133;BME280;57495;49.922;7.966;2023-11-19T04:32:55;99467.19;;;9.22;100.00
70133;BME280;57495;49.922;7.966;2023-11-19T04:34:57;99470.22;;;9.27;100.00
70133;BME280;57495;49.922;7.966;2023-11-19T04:36:57;99462.34;;;9.35;100.00
70133;BME280;57495;49.922;7.966;2023-11-19T04:39:04;99464.88;;;9.37;100.00
70133;BME280;57495;49.922;7.966;2023-11-19T04:41:09;99471.31;;;9.34;100.00
70133;BME280;57495;49.922;7.966;2023-11-19T04:43:11;99468.75;;;9.42;100.00
70133;BME280;57495;49.922;7.966;2023-11-19T04:45:13;99477.47;;;9.44;100.00
70133;BME280;57495;49.922;7.966;2023-11-19T04:47:14;99476.09;;;9.40;100.00
70133;BME280;57495;49.922;7.966;2023-11-19T04:49:15;99467.06;;;9.41;100.00
70133;BME280;57495;49.922;7.966;2023-11-19T04:51:17;99466.78;;;9.44;100.00
70133;BME280;57495;49.922;7.966;2023-11-19T04:53:18;99464.88;;;9.55;100.00
70133;BME280;57495;49.922;7.966;2023-11-19T04:55:21;99458.84;;;9.53;100.00
70133;BME280;57495;49.922;7.966;2023-11-19T04:57:22;99465.50;;;9.48;100.00
70133;BME280;57495;49.922;7.966;2023-11-19T04:59:24;99461.84;;;9.50;100.00
70133;BME280;57495;49.922;7.966;2023-11-19T05:01:25;99460.84;;;9.51;100.00
70133;BME280;57495;49.922;7.966;2023-11-19T05:03:27;99469.53;;;9.53;100.00
70133;BME280;57495;49.922;7.966;2023-11-19T05:05:28;99472.31;;;9.61;100.00
70133;BME280;57495;49.922;7.966;2023-11-19T05:07:30;99461.38;;;9.54;100.00
70133;BME280;57495;49.922;7.966;2023-11-19T05:09:31;99465.88;;;9.54;100.00
70133;BME280;57495;49.922;7.966;2023-11-19T05:11:35;99466.06;;;9.70;100.00
70133;BME280;57495;49.922;7.966;2023-11-19T05:13:36;99467.28;;;9.76;100.00
70133;BME280;57495;49.922;7.966;2023-11-19T05:15:38;99458.75;;;9.72;100.00
70133;BME280;57495;49.922;7.966;2023-11-19T05:17:38;99461.19;;;9.83;100.00
70133;BME280;57495;49.922;7.966;2023-11-19T05:19:40;99455.22;;;9.90;100.00
70133;BME280;57495;49.922;7.966;2023-11-19T05:21:41;99461.56;;;9.89;100.00
70133;BME280;57495;49.922;7.966;2023-11-19T05:23:43;99465.50;;;9.84;100.00
70133;BME280;57495;49.922;7.966;2023-11-19T05:25:45;99463.84;;;9.83;100.00
70133;BME280;57495;49.922;7.966;2023-11-19T05:27:47;99458.38;;;9.85;100.00
70133;BME280;57495;49.922;7.966;2023-11-19T05:29:48;99460.28;;;9.93;100.00
70133;BME280;57495;49.922;7.966;2023-11-19T05:31:50;99461.88;;;9.85;100.00
70133;BME280;57495;49.922;7.966;2023-11-19T05:33:51;99461.94;;;9.94;100.00
70133;BME280;57495;49.922;7.966;2023-11-19T05:35:52;99458.56;;;9.92;100.00
70133;BME280;57495;49.922;7.966;2023-11-19T05:37:53;99453.56;;;9.89;100.00
70133;BME280;57495;49.922;7.966;2023-11-19T05:39:56;99449.34;;;9.86;100.00
70133;BME280;57495;49.922;7.966;2023-11-19T05:41:57;99457.22;;;9.87;100.00
70133;BME280;57495;49.922;7.966;2023-11-19T05:44:00;99450.22;;;9.86;100.00
70133;BME280;57495;49.922;7.966;2023-11-19T05:46:02;99453.91;;;9.94;100.00
70133;BME280;57495;49.922;7.966;2023-11-19T05:48:03;99456.06;;;9.90;100.00
70133;BME280;57495;49.922;7.966;2023-11-19T05:50:05;99464.53;;;9.85;100.00
70133;BME280;57495;49.922;7.966;2023-11-19T05:52:07;99469.50;;;9.98;100.00
70133;BME280;57495;49.922;7.966;2023-11-19T05:54:10;99463.47;;;9.96;100.00
70133;BME280;57495;49.922;7.966;2023-11-19T05:56:11;99470.94;;;9.93;100.00
70133;BME280;57495;49.922;7.966;2023-11-19T05:58:13;99458.28;;;9.95;100.00
70133;BME280;57495;49.922;7.966;2023-11-19T06:00:17;99458.81;;;9.98;100.00
70133;BME280;57495;49.922;7.966;2023-11-19T06:02:18;99469.34;;;10.00;100.00
70133;BME280;57495;49.922;7.966;2023-11-19T06:04:20;99468.06;;;10.04;100.00
70133;BME280;57495;49.922;7.966;2023-11-19T06:06:21;99473.25;;;10.05;100.00
70133;BME280;57495;49.922;7.966;2023-11-19T06:08:22;99476.13;;;10.12;100.00
70133;BME280;57495;49.922;7.966;2023-11-19T06:10:24;99477.81;;;10.13;100.00
70133;BME280;57495;49.922;7.966;2023-11-19T06:12:30;99482.47;;;10.11;100.00
70133;BME280;57495;49.922;7.966;2023-11-19T06:14:33;99480.56;;;10.03;100.00
70133;BME280;57495;49.922;7.966;2023-11-19T06:16:36;99471.84;;;10.19;100.00
70133;BME280;57495;49.922;7.966;2023-11-19T06:18:40;99483.16;;;10.13;100.00
70133;BME280;57495;49.922;7.966;2023-11-19T06:20:41;99495.00;;;10.11;100.00
70133;BME280;57495;49.922;7.966;2023-11-19T06:22:43;99498.28;;;10.22;100.00
70133;BME280;57495;49.922;7.966;2023-11-19T06:24:46;99486.59;;;10.23;100.00
70133;BME280;57495;49.922;7.966;2023-11-19T06:26:48;99500.56;;;10.17;100.00
70133;BME280;57495;49.922;7.966;2023-11-19T06:28:49;99486.81;;;10.12;100.00
70133;BME280;57495;49.922;7.966;2023-11-19T06:30:50;99487.97;;;10.10;100.00
70133;BME280;57495;49.922;7.966;2023-11-19T06:32:52;99493.59;;;10.06;100.00
70133;BME280;57495;49.922;7.966;2023-11-19T06:34:54;99495.84;;;10.11;100.00
70133;BME280;57495;49.922;7.966;2023-11-19T06:36:54;99489.97;;;10.07;100.00
70133;BME280;57495;49.922;7.966;2023-11-19T06:38:57;99489.41;;;10.04;100.00
70133;BME280;57495;49.922;7.966;2023-11-19T06:40:58;99495.31;;;10.07;100.00
70133;BME280;57495;49.922;7.966;2023-11-19T06:43:00;99488.81;;;10.10;100.00
70133;BME280;57495;49.922;7.966;2023-11-19T06:45:03;99493.06;;;10.03;100.00
70133;BME280;57495;49.922;7.966;2023-11-19T06:47:06;99492.94;;;10.22;100.00
70133;BME280;57495;49.922;7.966;2023-11-19T06:49:08;99490.03;;;10.16;100.00
70133;BME280;57495;49.922;7.966;2023-11-19T06:51:10;99491.19;;;10.13;100.00
70133;BME280;57495;49.922;7.966;2023-11-19T06:53:10;99489.19;;;10.15;100.00
70133;BME280;57495;49.922;7.966;2023-11-19T06:55:11;99493.38;;;10.18;100.00
70133;BME280;57495;49.922;7.966;2023-11-19T06:57:13;99489.03;;;10.17;100.00
70133;BME280;57495;49.922;7.966;2023-11-19T06:59:15;99500.03;;;10.14;100.00
70133;BME280;57495;49.922;7.966;2023-11-19T07:01:17;99485.84;;;10.13;100.00
70133;BME280;57495;49.922;7.966;2023-11-19T07:03:19;99482.88;;;10.16;100.00
70133;BME280;57495;49.922;7.966;2023-11-19T07:05:23;99481.09;;;10.25;100.00
70133;BME280;57495;49.922;7.966;2023-11-19T07:07:24;99491.78;;;10.25;100.00
70133;BME280;57495;49.922;7.966;2023-11-19T07:09:26;99494.28;;;10.26;100.00
70133;BME280;57495;49.922;7.966;2023-11-19T07:11:28;99503.72;;;10.31;100.00
70133;BME280;57495;49.922;7.966;2023-11-19T07:13:29;99501.94;;;10.21;100.00
70133;BME280;57495;49.922;7.966;2023-11-19T07:15:31;99496.91;;;10.18;100.00
70133;BME280;57495;49.922;7.966;2023-11-19T07:17:33;99502.56;;;10.15;100.00
70133;BME280;57495;49.922;7.966;2023-11-19T07:19:35;99502.72;;;10.32;100.00
70133;BME280;57495;49.922;7.966;2023-11-19T07:21:42;99502.72;;;10.32;100.00
70133;BME280;57495;49.922;7.966;2023-11-19T07:23:44;99491.66;;;10.44;100.00
70133;BME280;57495;49.922;7.966;2023-11-19T07:25:45;99504.81;;;10.64;100.00
70133;BME280;57495;49.922;7.966;2023-11-19T07:27:47;99493.28;;;10.63;100.00
70133;BME280;57495;49.922;7.966;2023-11-19T07:29:49;99495.81;;;10.65;100.00
70133;BME280;57495;49.922;7.966;2023-11-19T07:31:51;99506.66;;;10.63;100.00
70133;BME280;57495;49.922;7.966;2023-11-19T07:33:52;99496.47;;;10.67;100.00
70133;BME280;57495;49.922;7.966;2023-11-19T07:35:55;99499.69;;;10.71;100.00
70133;BME280;57495;49.922;7.966;2023-11-19T07:37:58;99497.69;;;10.73;100.00
70133;BME280;57495;49.922;7.966;2023-11-19T07:39:59;99500.66;;;10.70;100.00
70133;BME280;57495;49.922;7.966;2023-11-19T07:42:01;99510.41;;;10.79;100.00
70133;BME280;57495;49.922;7.966;2023-11-19T07:44:02;99523.03;;;10.87;100.00
70133;BME280;57495;49.922;7.966;2023-11-19T07:46:04;99518.38;;;10.89;100.00
70133;BME280;57495;49.922;7.966;2023-11-19T07:48:08;99518.63;;;11.03;100.00
70133;BME280;57495;49.922;7.966;2023-11-19T07:50:10;99519.69;;;11.11;100.00
70133;BME280;57495;49.922;7.966;2023-11-19T07:52:13;99524.38;;;11.17;100.00
70133;BME280;57495;49.922;7.966;2023-11-19T07:54:16;99529.88;;;11.15;100.00
70133;BME280;57495;49.922;7.966;2023-11-19T07:56:17;99531.09;;;11.21;100.00
70133;BME280;57495;49.922;7.966;2023-11-19T07:58:19;99527.09;;;11.25;100.00
70133;BME280;57495;49.922;7.966;2023-11-19T08:00:20;99517.50;;;11.49;100.00
70133;BME280;57495;49.922;7.966;2023-11-19T08:02:22;99526.19;;;11.51;100.00
70133;BME280;57495;49.922;7.966;2023-11-19T08:04:23;99528.84;;;11.43;100.00
70133;BME280;57495;49.922;7.966;2023-11-19T08:06:25;99530.50;;;11.35;100.00
70133;BME280;57495;49.922;7.966;2023-11-19T08:08:25;99530.19;;;11.38;100.00
70133;BME280;57495;49.922;7.966;2023-11-19T08:10:30;99525.50;;;11.40;100.00
70133;BME280;57495;49.922;7.966;2023-11-19T08:12:33;99535.56;;;11.47;100.00
70133;BME280;57495;49.922;7.966;2023-11-19T08:14:35;99527.22;;;11.50;100.00
70133;BME280;57495;49.922;7.966;2023-11-19T08:16:38;99529.56;;;11.53;100.00
70133;BME280;57495;49.922;7.966;2023-11-19T08:18:43;99525.16;;;11.44;100.00
70133;BME280;57495;49.922;7.966;2023-11-19T08:20:45;99532.19;;;11.36;100.00
70133;BME280;57495;49.922;7.966;2023-11-19T08:22:49;99543.56;;;11.38;100.00
70133;BME280;57495;49.922;7.966;2023-11-19T08:24:50;99543.56;;;11.38;100.00
70133;BME280;57495;49.922;7.966;2023-11-19T08:26:52;99551.09;;;11.35;100.00
70133;BME280;57495;49.922;7.966;2023-11-19T08:28:54;99549.88;;;11.29;100.00
70133;BME280;57495;49.922;7.966;2023-11-19T08:30:55;99549.53;;;11.32;100.00
70133;BME280;57495;49.922;7.966;2023-11-19T08:32:57;99545.88;;;11.33;100.00
70133;BME280;57495;49.922;7.966;2023-11-19T08:34:58;99548.41;;;11.35;100.00
70133;BME280;57495;49.922;7.966;2023-11-19T08:37:00;99550.41;;;11.33;100.00
70133;BME280;57495;49.922;7.966;2023-11-19T08:39:02;99548.41;;;11.35;100.00
70133;BME280;57495;49.922;7.966;2023-11-19T08:41:03;99551.47;;;11.48;100.00
70133;BME280;57495;49.922;7.966;2023-11-19T08:43:06;99550.66;;;11.48;100.00
70133;BME280;57495;49.922;7.966;2023-11-19T08:45:08;99554.19;;;11.56;100.00
70133;BME280;57495;49.922;7.966;2023-11-19T08:47:11;99556.34;;;11.53;100.00
70133;BME280;57495;49.922;7.966;2023-11-19T08:49:13;99560.69;;;11.46;100.00
70133;BME280;57495;49.922;7.966;2023-11-19T08:51:14;99556.63;;;11.41;100.00
70133;BME280;57495;49.922;7.966;2023-11-19T08:53:15;99550.28;;;11.43;100.00
70133;BME280;57495;49.922;7.966;2023-11-19T08:55:17;99557.81;;;11.47;100.00
70133;BME280;57495;49.922;7.966;2023-11-19T08:57:19;99540.69;;;11.66;100.00
70133;BME280;57495;49.922;7.966;2023-11-19T08:59:22;99546.34;;;11.63;100.00
70133;BME280;57495;49.922;7.966;2023-11-19T09:01:23;99546.88;;;11.67;100.00
70133;BME280;57495;49.922;7.966;2023-11-19T09:03:25;99551.41;;;11.66;100.00
70133;BME280;57495;49.922;7.966;2023-11-19T09:05:27;99550.00;;;11.62;100.00
70133;BME280;57495;49.922;7.966;2023-11-19T09:07:27;99542.09;;;11.87;100.00
70133;BME280;57495;49.922;7.966;2023-11-19T09:09:29;99538.63;;;11.94;100.00
70133;BME280;57495;49.922;7.966;2023-11-19T09:11:31;99543.06;;;11.86;100.00
70133;BME280;57495;49.922;7.966;2023-11-19T09:13:33;99542.78;;;11.97;100.00
70133;BME280;57495;49.922;7.966;2023-11-19T09:15:35;99542.47;;;12.00;100.00
70133;BME280;57495;49.922;7.966;2023-11-19T09:17:37;99542.34;;;12.18;100.00
70133;BME280;57495;49.922;7.966;2023-11-19T09:19:38;99533.16;;;12.37;100.00
70133;BME280;57495;49.922;7.966;2023-11-19T09:21:40;99539.69;;;12.34;100.00
70133;BME280;57495;49.922;7.966;2023-11-19T09:23:41;99547.22;;;12.39;100.00
70133;BME280;57495;49.922;7.966;2023-11-19T09:25:44;99548.22;;;12.54;100.00
70133;BME280;57495;49.922;7.966;2023-11-19T09:27:45;99556.47;;;12.61;100.00
70133;BME280;57495;49.922;7.966;2023-11-19T09:29:46;99558.31;;;12.69;100.00
70133;BME280;57495;49.922;7.966;2023-11-19T09:31:51;99561.97;;;13.01;100.00
70133;BME280;57495;49.922;7.966;2023-11-19T09:33:52;99570.31;;;13.22;100.00
70133;BME280;57495;49.922;7.966;2023-11-19T09:35:53;99564.59;;;13.42;100.00
70133;BME280;57495;49.922;7.966;2023-11-19T09:37:54;99574.66;;;13.48;100.00
70133;BME280;57495;49.922;7.966;2023-11-19T09:39:56;99571.25;;;13.62;100.00
70133;BME280;57495;49.922;7.966;2023-11-19T09:41:57;99568.38;;;13.64;100.00
70133;BME280;57495;49.922;7.966;2023-11-19T09:43:59;99577.88;;;13.83;100.00
70133;BME280;57495;49.922;7.966;2023-11-19T09:46:02;99579.50;;;13.61;100.00
70133;BME280;57495;49.922;7.966;2023-11-19T09:48:08;99578.84;;;13.50;100.00
70133;BME280;57495;49.922;7.966;2023-11-19T09:50:11;99577.88;;;13.83;100.00
70133;BME280;57495;49.922;7.966;2023-11-19T09:52:15;99585.91;;;13.91;100.00
70133;BME280;57495;49.922;7.966;2023-11-19T09:54:17;99579.69;;;14.22;100.00
70133;BME280;57495;49.922;7.966;2023-11-19T09:56:18;99580.34;;;14.24;100.00
70133;BME280;57495;49.922;7.966;2023-11-19T09:58:20;99584.44;;;14.43;100.00
70133;BME280;57495;49.922;7.966;2023-11-19T10:00:22;99585.31;;;14.66;100.00
70133;BME280;57495;49.922;7.966;2023-11-19T10:02:23;99577.41;;;14.65;100.00
70133;BME280;57495;49.922;7.966;2023-11-19T10:04:29;99567.16;;;14.37;100.00
70133;BME280;57495;49.922;7.966;2023-11-19T10:06:31;99579.69;;;13.90;100.00
70133;BME280;57495;49.922;7.966;2023-11-19T10:08:32;99582.28;;;13.76;100.00
70133;BME280;57495;49.922;7.966;2023-11-19T10:10:34;99580.09;;;13.71;100.00
70133;BME280;57495;49.922;7.966;2023-11-19T10:12:35;99586.22;;;13.57;100.00
70133;BME280;57495;49.922;7.966;2023-11-19T10:14:37;99566.06;;;13.52;100.00
70133;BME280;57495;49.922;7.966;2023-11-19T10:16:40;99573.97;;;13.54;100.00
70133;BME280;57495;49.922;7.966;2023-11-19T10:18:44;99571.25;;;13.62;100.00
70133;BME280;57495;49.922;7.966;2023-11-19T10:20:47;99560.16;;;13.65;100.00
70133;BME280;57495;49.922;7.966;2023-11-19T10:22:52;99561.19;;;13.56;100.00
70133;BME280;57495;49.922;7.966;2023-11-19T10:24:54;99557.34;;;13.50;100.00
70133;BME280;57495;49.922;7.966;2023-11-19T10:26:56;99556.19;;;13.45;100.00
70133;BME280;57495;49.922;7.966;2023-11-19T10:28:58;99558.16;;;13.51;100.00
70133;BME280;57495;49.922;7.966;2023-11-19T10:30:59;99547.78;;;13.48;100.00
70133;BME280;57495;49.922;7.966;2023-11-19T10:33:05;99559.53;;;13.55;100.00
70133;BME280;57495;49.922;7.966;2023-11-19T10:35:07;99553.63;;;13.60;100.00
70133;BME280;57495;49.922;7.966;2023-11-19T10:37:27;99555.03;;;13.47;100.00
70133;BME280;57495;49.922;7.966;2023-11-19T10:39:51;99550.16;;;13.26;100.00
70133;BME280;57495;49.922;7.966;2023-11-19T10:41:53;99558.25;;;13.18;100.00
70133;BME280;57495;49.922;7.966;2023-11-19T10:43:54;99552.88;;;13.10;100.00